createdAt,value
2019-03-19T00:00:25.431Z,1014.45
2019-03-19T00:01:25.529Z,1014.44
2019-03-19T00:02:25.401Z,1014.46
2019-03-19T00:03:25.386Z,1014.46
2019-03-19T00:04:25.367Z,1014.48
2019-03-19T00:05:25.353Z,1014.43
2019-03-19T00:06:25.349Z,1014.43
2019-03-19T00:07:25.437Z,1014.41
2019-03-19T00:08:25.339Z,1014.43
2019-03-19T00:09:25.317Z,1014.45
2019-03-19T00:10:25.318Z,1014.46
2019-03-19T00:11:25.321Z,1014.46
2019-03-19T00:12:25.394Z,1014.44
2019-03-19T00:13:25.363Z,1014.45
2019-03-19T00:14:26.704Z,1014.46
2019-03-19T00:15:25.305Z,1014.45
2019-03-19T00:16:25.256Z,1014.47
2019-03-19T00:17:25.231Z,1014.45
2019-03-19T00:18:25.209Z,1014.46
2019-03-19T00:19:30.267Z,1014.48
2019-03-19T00:20:25.250Z,1014.52
2019-03-19T00:21:25.188Z,1014.49
2019-03-19T00:22:25.881Z,1014.52
2019-03-19T00:23:25.169Z,1014.52
2019-03-19T00:24:25.368Z,1014.51
2019-03-19T00:25:29.953Z,1014.55
2019-03-19T00:26:26.122Z,1014.54
2019-03-19T00:27:25.118Z,1014.57
2019-03-19T00:28:25.162Z,1014.61
2019-03-19T00:29:25.086Z,1014.59
2019-03-19T00:30:25.366Z,1014.66
2019-03-19T00:31:25.167Z,1014.67
2019-03-19T00:32:25.364Z,1014.74
2019-03-19T00:33:25.046Z,1014.69
2019-03-19T00:34:25.250Z,1014.71
2019-03-19T00:35:25.025Z,1014.67
2019-03-19T00:36:25.025Z,1014.67
2019-03-19T00:37:25.029Z,1014.71
2019-03-19T00:38:25.105Z,1014.69
2019-03-19T00:39:24.975Z,1014.71
2019-03-19T00:40:24.964Z,1014.68
2019-03-19T00:41:24.955Z,1014.62
2019-03-19T00:42:25.062Z,1014.62
2019-03-19T00:43:25.067Z,1014.57
2019-03-19T00:44:25.061Z,1014.55
2019-03-19T00:45:24.985Z,1014.58
2019-03-19T00:46:24.905Z,1014.57
2019-03-19T00:47:24.915Z,1014.58
2019-03-19T00:48:24.893Z,1014.59
2019-03-19T00:49:24.867Z,1014.58
2019-03-19T00:50:25.592Z,1014.61
2019-03-19T00:51:24.850Z,1014.57
2019-03-19T00:52:24.861Z,1014.52
2019-03-19T00:53:24.825Z,1014.53
2019-03-19T00:54:24.820Z,1014.60
2019-03-19T00:55:24.929Z,1014.58
2019-03-19T00:56:24.796Z,1014.58
2019-03-19T00:57:24.784Z,1014.59
2019-03-19T00:58:24.769Z,1014.54
2019-03-19T00:59:24.765Z,1014.58
2019-03-19T01:00:24.767Z,1014.59
2019-03-19T01:01:24.857Z,1014.60
2019-03-19T01:02:24.809Z,1014.55
2019-03-19T01:03:24.799Z,1014.60
2019-03-19T01:04:24.720Z,1014.59
2019-03-19T01:05:24.694Z,1014.60
2019-03-19T01:06:25.008Z,1014.57
2019-03-19T01:07:24.679Z,1014.60
2019-03-19T01:08:24.651Z,1014.61
2019-03-19T01:09:24.892Z,1014.61
2019-03-19T01:10:24.660Z,1014.59
2019-03-19T01:11:24.652Z,1014.60
2019-03-19T01:12:24.661Z,1014.62
2019-03-19T01:13:24.611Z,1014.58
2019-03-19T01:14:24.784Z,1014.61
2019-03-19T01:15:24.591Z,1014.60
2019-03-19T01:16:24.778Z,1014.63
2019-03-19T01:17:24.676Z,1014.62
2019-03-19T01:18:24.557Z,1014.66
2019-03-19T01:19:24.685Z,1014.63
2019-03-19T01:20:24.587Z,1014.68
2019-03-19T01:21:24.881Z,1014.70
2019-03-19T01:22:24.526Z,1014.72
2019-03-19T01:23:24.538Z,1014.65
2019-03-19T01:24:24.541Z,1014.75
2019-03-19T01:25:25.102Z,1014.72
2019-03-19T01:26:24.816Z,1014.73
2019-03-19T01:27:24.507Z,1014.73
2019-03-19T01:28:24.511Z,1014.72
2019-03-19T01:29:24.421Z,1014.80
2019-03-19T01:30:24.408Z,1014.79
2019-03-19T01:31:24.396Z,1014.75
2019-03-19T01:32:24.586Z,1014.78
2019-03-19T01:33:24.401Z,1014.81
2019-03-19T01:34:24.635Z,1014.85
2019-03-19T01:35:24.378Z,1014.85
2019-03-19T01:36:24.355Z,1014.83
2019-03-19T01:37:24.349Z,1014.84
2019-03-19T01:38:24.326Z,1014.91
2019-03-19T01:39:24.323Z,1014.86
2019-03-19T01:40:24.622Z,1014.89
2019-03-19T01:41:24.287Z,1014.92
2019-03-19T01:42:24.278Z,1014.90
2019-03-19T01:43:24.272Z,1014.96
2019-03-19T01:44:24.262Z,1014.97
2019-03-19T01:45:24.273Z,1014.99
2019-03-19T01:46:24.379Z,1014.97
2019-03-19T01:47:24.813Z,1014.99
2019-03-19T01:48:24.217Z,1014.99
2019-03-19T01:49:24.200Z,1014.92
2019-03-19T01:50:24.201Z,1014.94
2019-03-19T01:51:24.239Z,1014.91
2019-03-19T01:52:24.493Z,1014.97
2019-03-19T01:53:24.161Z,1014.98
2019-03-19T01:54:24.148Z,1014.97
2019-03-19T01:55:25.642Z,1014.95
2019-03-19T01:56:24.147Z,1015.01
2019-03-19T01:57:24.343Z,1015.05
2019-03-19T01:58:24.098Z,1015.08
2019-03-19T01:59:24.097Z,1015.05
2019-03-19T02:00:24.078Z,1015.08
2019-03-19T02:01:24.077Z,1015.09
2019-03-19T02:02:24.057Z,1015.13
2019-03-19T02:03:24.199Z,1015.12
2019-03-19T02:04:24.035Z,1015.08
2019-03-19T02:05:24.020Z,1015.11
2019-03-19T02:06:24.024Z,1015.16
2019-03-19T02:07:24.004Z,1015.18
2019-03-19T02:08:24.070Z,1015.15
2019-03-19T02:09:24.397Z,1015.16
2019-03-19T02:10:24.277Z,1015.13
2019-03-19T02:11:24.131Z,1015.14
2019-03-19T02:12:23.962Z,1015.20
2019-03-19T02:13:23.934Z,1015.09
2019-03-19T02:14:24.040Z,1015.18
2019-03-19T02:15:23.915Z,1015.17
2019-03-19T02:16:23.909Z,1015.17
2019-03-19T02:17:23.891Z,1015.19
2019-03-19T02:18:23.888Z,1015.21
2019-03-19T02:19:24.005Z,1015.22
2019-03-19T02:20:23.988Z,1015.22
2019-03-19T02:21:23.875Z,1015.24
2019-03-19T02:22:23.850Z,1015.27
2019-03-19T02:23:23.868Z,1015.29
2019-03-19T02:24:23.836Z,1015.25
2019-03-19T02:25:24.838Z,1015.26
2019-03-19T02:26:23.790Z,1015.25
2019-03-19T02:27:23.801Z,1015.32
2019-03-19T02:28:23.771Z,1015.34
2019-03-19T02:29:23.765Z,1015.36
2019-03-19T02:30:23.835Z,1015.36
2019-03-19T02:31:23.860Z,1015.40
2019-03-19T02:32:23.726Z,1015.44
2019-03-19T02:33:23.717Z,1015.45
2019-03-19T02:34:26.633Z,1015.39
2019-03-19T02:35:23.717Z,1015.43
2019-03-19T02:36:24.850Z,1015.50
2019-03-19T02:37:23.681Z,1015.50
2019-03-19T02:38:23.659Z,1015.45
2019-03-19T02:39:23.650Z,1015.51
2019-03-19T02:40:23.687Z,1015.56
2019-03-19T02:41:23.854Z,1015.59
2019-03-19T02:42:23.628Z,1015.56
2019-03-19T02:43:23.605Z,1015.56
2019-03-19T02:44:23.594Z,1015.64
2019-03-19T02:45:23.629Z,1015.63
2019-03-19T02:46:23.581Z,1015.58
2019-03-19T02:47:23.674Z,1015.59
2019-03-19T02:48:23.560Z,1015.61
2019-03-19T02:49:23.542Z,1015.60
2019-03-19T02:50:23.535Z,1015.54
2019-03-19T02:51:23.520Z,1015.56
2019-03-19T02:52:23.773Z,1015.50
2019-03-19T02:53:23.627Z,1015.59
2019-03-19T02:54:23.620Z,1015.58
2019-03-19T02:55:23.554Z,1015.61
2019-03-19T02:56:32.702Z,1015.61
2019-03-19T02:57:24.540Z,1015.62
2019-03-19T02:58:23.442Z,1015.69
2019-03-19T02:59:23.625Z,1015.72
2019-03-19T03:00:23.418Z,1015.71
2019-03-19T03:01:23.402Z,1015.69
2019-03-19T03:02:23.403Z,1015.74
2019-03-19T03:03:23.406Z,1015.76
2019-03-19T03:04:23.385Z,1015.74
2019-03-19T03:05:23.491Z,1015.74
2019-03-19T03:06:23.366Z,1015.79
2019-03-19T03:07:30.301Z,1015.79
2019-03-19T03:08:23.412Z,1015.78
2019-03-19T03:09:23.320Z,1015.77
2019-03-19T03:10:23.307Z,1015.81
2019-03-19T03:11:23.363Z,1015.73
2019-03-19T03:12:23.293Z,1015.82
2019-03-19T03:13:23.279Z,1015.85
2019-03-19T03:14:23.352Z,1015.84
2019-03-19T03:15:23.256Z,1015.89
2019-03-19T03:16:23.267Z,1015.83
2019-03-19T03:17:23.360Z,1015.86
2019-03-19T03:18:23.233Z,1015.85
2019-03-19T03:19:23.213Z,1015.87
2019-03-19T03:20:23.207Z,1015.89
2019-03-19T03:21:23.408Z,1015.90
2019-03-19T03:22:23.174Z,1015.89
2019-03-19T03:23:23.397Z,1015.85
2019-03-19T03:24:23.164Z,1015.89
2019-03-19T03:25:23.156Z,1015.92
2019-03-19T03:26:23.131Z,1015.93
2019-03-19T03:27:23.122Z,1015.95
2019-03-19T03:28:23.353Z,1015.95
2019-03-19T03:29:23.114Z,1015.93
2019-03-19T03:30:23.138Z,1015.96
2019-03-19T03:31:23.289Z,1015.97
2019-03-19T03:32:23.076Z,1015.94
2019-03-19T03:33:23.406Z,1016.00
2019-03-19T03:34:23.073Z,1016.04
2019-03-19T03:35:23.052Z,1016.04
2019-03-19T03:36:23.082Z,1016.06
2019-03-19T03:37:23.021Z,1016.02
2019-03-19T03:38:23.125Z,1016.04
2019-03-19T03:39:22.995Z,1016.11
2019-03-19T03:40:22.983Z,1016.09
2019-03-19T03:41:22.975Z,1016.12
2019-03-19T03:42:22.964Z,1016.10
2019-03-19T03:43:22.972Z,1016.12
2019-03-19T03:44:23.105Z,1016.11
2019-03-19T03:45:22.922Z,1016.15
2019-03-19T03:46:23.069Z,1016.19
2019-03-19T03:47:24.112Z,1016.16
2019-03-19T03:48:22.906Z,1016.17
2019-03-19T03:49:22.896Z,1016.21
2019-03-19T03:50:22.905Z,1016.20
2019-03-19T03:51:22.862Z,1016.27
2019-03-19T03:52:23.026Z,1016.27
2019-03-19T03:53:22.873Z,1016.30
2019-03-19T03:54:22.834Z,1016.17
2019-03-19T03:55:22.910Z,1016.21
2019-03-19T03:56:22.828Z,1016.27
2019-03-19T03:57:22.798Z,1016.28
2019-03-19T03:58:22.943Z,1016.36
2019-03-19T03:59:22.801Z,1016.41
2019-03-19T04:00:22.775Z,1016.34
2019-03-19T04:01:22.822Z,1016.43
2019-03-19T04:02:22.773Z,1016.40
2019-03-19T04:03:22.869Z,1016.45
2019-03-19T04:04:22.846Z,1016.46
2019-03-19T04:05:22.728Z,1016.41
2019-03-19T04:06:22.735Z,1016.49
2019-03-19T04:07:22.688Z,1016.53
2019-03-19T04:08:22.832Z,1016.55
2019-03-19T04:09:23.041Z,1016.55
2019-03-19T04:10:22.672Z,1016.53
2019-03-19T04:11:22.652Z,1016.58
2019-03-19T04:12:22.645Z,1016.56
2019-03-19T04:13:22.629Z,1016.53
2019-03-19T04:14:22.616Z,1016.63
2019-03-19T04:15:22.839Z,1016.61
2019-03-19T04:16:22.616Z,1016.60
2019-03-19T04:17:22.873Z,1016.58
2019-03-19T04:18:22.738Z,1016.64
2019-03-19T04:19:22.569Z,1016.69
2019-03-19T04:20:22.683Z,1016.66
2019-03-19T04:21:22.554Z,1016.74
2019-03-19T04:22:22.561Z,1016.68
2019-03-19T04:23:22.669Z,1016.70
2019-03-19T04:24:22.566Z,1016.74
2019-03-19T04:25:22.546Z,1016.78
2019-03-19T04:26:22.571Z,1016.81
2019-03-19T04:27:22.572Z,1016.85
2019-03-19T04:28:22.535Z,1016.84
2019-03-19T04:29:22.811Z,1016.91
2019-03-19T04:30:22.502Z,1016.91
2019-03-19T04:31:22.432Z,1016.91
2019-03-19T04:32:22.690Z,1016.89
2019-03-19T04:33:22.429Z,1016.88
2019-03-19T04:34:22.408Z,1016.91
2019-03-19T04:35:22.385Z,1016.86
2019-03-19T04:36:22.503Z,1016.81
2019-03-19T04:37:24.441Z,1016.85
2019-03-19T04:38:22.381Z,1016.90
2019-03-19T04:39:22.385Z,1016.84
2019-03-19T04:40:22.546Z,1016.87
2019-03-19T04:41:22.327Z,1016.83
2019-03-19T04:42:22.322Z,1016.81
2019-03-19T04:43:22.301Z,1016.82
2019-03-19T04:44:22.295Z,1016.74
2019-03-19T04:45:22.280Z,1016.82
2019-03-19T04:46:22.410Z,1016.82
2019-03-19T04:47:22.255Z,1016.86
2019-03-19T04:48:22.243Z,1016.81
2019-03-19T04:49:22.246Z,1016.79
2019-03-19T04:50:22.231Z,1016.80
2019-03-19T04:51:22.223Z,1016.82
2019-03-19T04:52:22.291Z,1016.88
2019-03-19T04:53:24.113Z,1016.86
2019-03-19T04:54:22.278Z,1016.91
2019-03-19T04:55:22.188Z,1016.89
2019-03-19T04:56:22.230Z,1016.90
2019-03-19T04:57:26.726Z,1016.89
2019-03-19T04:58:23.675Z,1016.91
2019-03-19T04:59:22.124Z,1016.93
2019-03-19T05:00:22.140Z,1016.95
2019-03-19T05:01:22.110Z,1016.96
2019-03-19T05:02:22.115Z,1017.00
2019-03-19T05:03:22.086Z,1016.96
2019-03-19T05:04:22.294Z,1017.06
2019-03-19T05:05:22.070Z,1017.09
2019-03-19T05:06:22.053Z,1017.08
2019-03-19T05:07:22.052Z,1017.06
2019-03-19T05:08:22.039Z,1017.14
2019-03-19T05:09:22.191Z,1017.15
2019-03-19T05:10:22.017Z,1017.23
2019-03-19T05:11:21.994Z,1017.20
2019-03-19T05:12:21.988Z,1017.28
2019-03-19T05:13:21.995Z,1017.27
2019-03-19T05:14:22.119Z,1017.31
2019-03-19T05:15:21.972Z,1017.34
2019-03-19T05:16:22.081Z,1017.35
2019-03-19T05:17:21.933Z,1017.41
2019-03-19T05:18:21.922Z,1017.41
2019-03-19T05:19:21.919Z,1017.44
2019-03-19T05:20:22.028Z,1017.41
2019-03-19T05:21:21.979Z,1017.42
2019-03-19T05:22:21.873Z,1017.46
2019-03-19T05:23:21.861Z,1017.47
2019-03-19T05:24:21.851Z,1017.50
2019-03-19T05:25:21.893Z,1017.56
2019-03-19T05:26:22.093Z,1017.56
2019-03-19T05:27:21.820Z,1017.58
2019-03-19T05:28:21.838Z,1017.58
2019-03-19T05:29:21.803Z,1017.58
2019-03-19T05:30:21.794Z,1017.62
2019-03-19T05:31:21.939Z,1017.61
2019-03-19T05:32:21.761Z,1017.63
2019-03-19T05:33:21.765Z,1017.63
2019-03-19T05:34:21.911Z,1017.64
2019-03-19T05:35:21.888Z,1017.65
2019-03-19T05:36:21.937Z,1017.64
2019-03-19T05:37:21.763Z,1017.67
2019-03-19T05:38:21.735Z,1017.63
2019-03-19T05:39:22.021Z,1017.68
2019-03-19T05:40:21.693Z,1017.66
2019-03-19T05:41:21.725Z,1017.71
2019-03-19T05:42:21.666Z,1017.72
2019-03-19T05:43:21.760Z,1017.77
2019-03-19T05:44:21.835Z,1017.75
2019-03-19T05:45:21.643Z,1017.77
2019-03-19T05:46:22.660Z,1017.77
2019-03-19T05:47:21.606Z,1017.79
2019-03-19T05:48:23.210Z,1017.80
2019-03-19T05:49:21.615Z,1017.81
2019-03-19T05:50:21.659Z,1017.81
2019-03-19T05:51:21.597Z,1017.84
2019-03-19T05:52:22.032Z,1017.84
2019-03-19T05:53:21.599Z,1017.86
2019-03-19T05:54:21.782Z,1017.87
2019-03-19T05:55:21.676Z,1017.87
2019-03-19T05:56:21.785Z,1017.91
2019-03-19T05:57:21.881Z,1017.93
2019-03-19T05:58:21.782Z,1017.95
2019-03-19T05:59:21.870Z,1017.98
2019-03-19T06:00:21.941Z,1017.93
2019-03-19T06:01:21.592Z,1018.01
2019-03-19T06:02:21.729Z,1018.01
2019-03-19T06:03:21.922Z,1018.02
2019-03-19T06:04:21.752Z,1017.97
2019-03-19T06:05:21.745Z,1018.00
2019-03-19T06:06:21.637Z,1018.04
2019-03-19T06:07:21.751Z,1018.01
2019-03-19T06:08:36.231Z,1017.99
2019-03-19T06:09:28.022Z,1018.03
2019-03-19T06:10:21.629Z,1018.02
2019-03-19T06:11:23.847Z,1018.03
2019-03-19T06:12:21.701Z,1018.05
2019-03-19T06:13:21.924Z,1018.07
2019-03-19T06:14:21.955Z,1018.15
2019-03-19T06:15:21.740Z,1018.06
2019-03-19T06:16:21.674Z,1018.11
2019-03-19T06:17:21.876Z,1018.11
2019-03-19T06:18:21.629Z,1018.10
2019-03-19T06:19:22.978Z,1018.11
2019-03-19T06:20:21.873Z,1018.09
2019-03-19T06:21:22.132Z,1018.09
2019-03-19T06:22:21.806Z,1018.13
2019-03-19T06:23:21.899Z,1018.18
2019-03-19T06:24:27.026Z,1018.22
2019-03-19T06:25:22.676Z,1018.25
2019-03-19T06:26:22.863Z,1018.18
2019-03-19T06:27:22.241Z,1018.18
2019-03-19T06:28:21.635Z,1018.17
2019-03-19T06:29:21.653Z,1018.17
2019-03-19T06:30:22.549Z,1018.20
2019-03-19T06:31:22.783Z,1018.20
2019-03-19T06:32:21.791Z,1018.17
2019-03-19T06:33:21.699Z,1018.20
2019-03-19T06:34:21.647Z,1018.23
2019-03-19T06:35:21.664Z,1018.20
2019-03-19T06:36:21.894Z,1018.22
2019-03-19T06:37:22.245Z,1018.36
2019-03-19T06:38:21.739Z,1018.23
2019-03-19T06:39:21.699Z,1018.19
2019-03-19T06:40:21.730Z,1018.29
2019-03-19T06:41:21.674Z,1018.31
2019-03-19T06:42:22.285Z,1018.22
2019-03-19T06:43:21.661Z,1018.27
2019-03-19T06:44:22.375Z,1018.23
2019-03-19T06:45:23.141Z,1018.23
2019-03-19T06:46:22.196Z,1018.25
2019-03-19T06:47:22.357Z,1018.23
2019-03-19T06:48:20.934Z,1018.21
2019-03-19T06:49:21.339Z,1018.27
2019-03-19T06:50:22.018Z,1018.28
2019-03-19T06:51:20.904Z,1018.32
2019-03-19T06:52:22.133Z,1018.28
2019-03-19T06:53:20.868Z,1018.40
2019-03-19T06:54:21.780Z,1018.39
2019-03-19T06:55:20.860Z,1018.39
2019-03-19T06:56:20.853Z,1018.32
2019-03-19T06:57:20.851Z,1018.32
2019-03-19T06:58:21.654Z,1018.25
2019-03-19T06:59:20.821Z,1018.32
2019-03-19T07:00:21.694Z,1018.29
2019-03-19T07:01:20.791Z,1018.37
2019-03-19T07:02:20.837Z,1018.35
2019-03-19T07:03:21.349Z,1018.35
2019-03-19T07:04:21.035Z,1018.39
2019-03-19T07:05:20.926Z,1018.35
2019-03-19T07:06:21.938Z,1018.37
2019-03-19T07:07:20.715Z,1018.37
2019-03-19T07:08:20.741Z,1018.38
2019-03-19T07:09:22.358Z,1018.55
2019-03-19T07:10:20.682Z,1018.54
2019-03-19T07:11:20.863Z,1018.46
2019-03-19T07:12:20.666Z,1018.50
2019-03-19T07:13:20.664Z,1018.46
2019-03-19T07:14:20.645Z,1018.42
2019-03-19T07:15:20.623Z,1018.40
2019-03-19T07:16:20.803Z,1018.53
2019-03-19T07:17:20.883Z,1018.52
2019-03-19T07:18:20.617Z,1018.48
2019-03-19T07:19:20.597Z,1018.43
2019-03-19T07:20:22.069Z,1018.49
2019-03-19T07:21:20.747Z,1018.51
2019-03-19T07:22:20.627Z,1018.55
2019-03-19T07:23:21.240Z,1018.49
2019-03-19T07:24:20.587Z,1018.51
2019-03-19T07:25:20.805Z,1018.66
2019-03-19T07:26:20.609Z,1018.51
2019-03-19T07:27:20.633Z,1018.66
2019-03-19T07:28:22.301Z,1018.44
2019-03-19T07:29:21.619Z,1018.48
2019-03-19T07:30:20.454Z,1018.69
2019-03-19T07:31:30.426Z,1018.53
2019-03-19T07:32:21.601Z,1018.49
2019-03-19T07:33:20.427Z,1018.57
2019-03-19T07:34:20.721Z,1018.72
2019-03-19T07:35:20.411Z,1018.72
2019-03-19T07:36:20.408Z,1018.65
2019-03-19T07:37:20.399Z,1018.61
2019-03-19T07:38:20.441Z,1018.79
2019-03-19T07:39:20.353Z,1018.83
2019-03-19T07:40:20.627Z,1018.73
2019-03-19T07:41:20.465Z,1018.84
2019-03-19T07:42:20.369Z,1018.62
2019-03-19T07:43:20.327Z,1018.73
2019-03-19T07:44:20.313Z,1018.60
2019-03-19T07:45:20.294Z,1018.62
2019-03-19T07:46:20.336Z,1018.87
2019-03-19T07:47:25.905Z,1018.73
2019-03-19T07:48:20.285Z,1018.71
2019-03-19T07:49:20.278Z,1018.78
2019-03-19T07:50:20.234Z,1018.73
2019-03-19T07:51:20.299Z,1019.00
2019-03-19T07:52:20.646Z,1018.98
2019-03-19T07:53:20.204Z,1019.04
2019-03-19T07:54:20.206Z,1018.93
2019-03-19T07:55:20.269Z,1018.79
2019-03-19T07:56:20.418Z,1019.14
2019-03-19T07:57:20.769Z,1019.13
2019-03-19T07:58:31.375Z,1018.94
2019-03-19T07:59:21.683Z,1019.01
2019-03-19T08:00:20.193Z,1018.91
2019-03-19T08:01:20.116Z,1018.93
2019-03-19T08:02:20.167Z,1018.99
2019-03-19T08:03:20.394Z,1019.07
2019-03-19T08:04:20.085Z,1019.13
2019-03-19T08:05:20.082Z,1019.07
2019-03-19T08:06:20.061Z,1019.08
2019-03-19T08:07:20.047Z,1019.18
2019-03-19T08:08:20.225Z,1019.06
2019-03-19T08:09:20.105Z,1019.11
2019-03-19T08:10:20.060Z,1019.14
2019-03-19T08:11:20.005Z,1019.11
2019-03-19T08:12:20.126Z,1019.14
2019-03-19T08:13:20.203Z,1019.20
2019-03-19T08:14:20.193Z,1019.34
2019-03-19T08:15:19.967Z,1019.27
2019-03-19T08:16:27.420Z,1019.24
2019-03-19T08:17:21.008Z,1019.21
2019-03-19T08:18:19.927Z,1019.24
2019-03-19T08:19:20.095Z,1019.21
2019-03-19T08:20:19.912Z,1019.25
2019-03-19T08:21:20.042Z,1019.28
2019-03-19T08:22:19.931Z,1019.50
2019-03-19T08:23:19.873Z,1019.26
2019-03-19T08:24:19.866Z,1019.23
2019-03-19T08:25:19.881Z,1019.51
2019-03-19T08:26:19.988Z,1019.51
2019-03-19T08:27:19.999Z,1019.53
2019-03-19T08:28:19.834Z,1019.54
2019-03-19T08:29:19.804Z,1019.21
2019-03-19T08:30:19.819Z,1019.20
2019-03-19T08:31:22.460Z,1019.65
2019-03-19T08:32:19.781Z,1019.60
2019-03-19T08:33:19.773Z,1019.61
2019-03-19T08:34:19.769Z,1019.61
2019-03-19T08:35:20.224Z,1019.58
2019-03-19T08:36:19.722Z,1019.31
2019-03-19T08:37:19.723Z,1019.69
2019-03-19T08:38:19.707Z,1019.68
2019-03-19T08:39:20.762Z,1019.48
2019-03-19T08:40:19.723Z,1019.34
2019-03-19T08:41:19.846Z,1019.77
2019-03-19T08:42:19.700Z,1019.71
2019-03-19T08:43:20.439Z,1019.76
2019-03-19T08:44:27.426Z,1019.39
2019-03-19T08:45:20.664Z,1019.37
2019-03-19T08:46:19.938Z,1019.46
2019-03-19T08:47:19.602Z,1019.45
2019-03-19T08:48:19.608Z,1019.43
2019-03-19T08:49:19.691Z,1019.46
2019-03-19T08:50:19.574Z,1019.43
2019-03-19T08:51:19.571Z,1019.83
2019-03-19T08:52:19.558Z,1019.87
2019-03-19T08:53:19.537Z,1019.60
2019-03-19T08:54:19.527Z,1019.82
2019-03-19T08:55:19.638Z,1019.81
2019-03-19T08:56:19.517Z,1019.36
2019-03-19T08:57:19.497Z,1019.42
2019-03-19T08:58:19.509Z,1019.55
2019-03-19T08:59:19.605Z,1019.90
2019-03-19T09:00:19.467Z,1019.97
2019-03-19T09:01:19.574Z,1019.47
2019-03-19T09:02:19.436Z,1019.49
2019-03-19T09:03:19.434Z,1019.52
2019-03-19T09:04:19.409Z,1019.49
2019-03-19T09:05:19.510Z,1019.51
2019-03-19T09:06:19.409Z,1019.56
2019-03-19T09:07:20.189Z,1019.59
2019-03-19T09:08:19.363Z,1019.67
2019-03-19T09:09:40.371Z,1019.67
2019-03-19T09:10:19.546Z,1019.92
2019-03-19T09:11:19.367Z,1019.69
2019-03-19T09:12:19.339Z,1020.03
2019-03-19T09:13:19.555Z,1019.56
2019-03-19T09:14:19.302Z,1019.88
2019-03-19T09:15:19.332Z,1019.99
2019-03-19T09:16:19.305Z,1019.89
2019-03-19T09:17:19.277Z,1020.05
2019-03-19T09:18:19.464Z,1020.03
2019-03-19T09:19:19.249Z,1019.90
2019-03-19T09:20:19.255Z,1020.01
2019-03-19T09:21:19.234Z,1020.04
2019-03-19T09:22:19.960Z,1020.11
2019-03-19T09:23:19.205Z,1020.06
2019-03-19T09:24:19.633Z,1020.05
2019-03-19T09:25:19.176Z,1019.71
2019-03-19T09:26:19.164Z,1019.64
2019-03-19T09:27:19.190Z,1019.61
2019-03-19T09:28:19.192Z,1019.68
2019-03-19T09:29:19.363Z,1020.12
2019-03-19T09:30:20.105Z,1020.03
2019-03-19T09:31:19.116Z,1019.97
2019-03-19T09:32:19.108Z,1019.62
2019-03-19T09:33:19.742Z,1019.61
2019-03-19T09:34:19.081Z,1019.54
2019-03-19T09:35:19.099Z,1019.60
2019-03-19T09:36:19.252Z,1019.68
2019-03-19T09:37:19.102Z,1019.74
2019-03-19T09:38:19.044Z,1020.15
2019-03-19T09:39:19.025Z,1019.72
2019-03-19T09:40:19.019Z,1019.83
2019-03-19T09:41:19.094Z,1019.77
2019-03-19T09:42:20.365Z,1019.73
2019-03-19T09:43:18.979Z,1019.66
2019-03-19T09:44:19.108Z,1019.73
2019-03-19T09:45:19.025Z,1019.81
2019-03-19T09:46:18.949Z,1019.95
2019-03-19T09:47:18.950Z,1019.70
2019-03-19T09:48:18.930Z,1019.71
2019-03-19T09:49:21.089Z,1019.68
2019-03-19T09:50:19.240Z,1019.61
2019-03-19T09:51:18.906Z,1019.72
2019-03-19T09:52:18.885Z,1019.75
2019-03-19T09:53:18.971Z,1019.66
2019-03-19T09:54:18.858Z,1019.71
2019-03-19T09:55:19.040Z,1019.74
2019-03-19T09:56:18.849Z,1019.76
2019-03-19T09:57:18.821Z,1019.74
2019-03-19T09:58:18.939Z,1019.78
2019-03-19T09:59:26.826Z,1019.82
2019-03-19T10:00:19.798Z,1019.85
2019-03-19T10:01:18.778Z,1019.86
2019-03-19T10:02:18.769Z,1019.91
2019-03-19T10:03:19.014Z,1019.97
2019-03-19T10:04:18.932Z,1020.42
2019-03-19T10:05:18.805Z,1020.36
2019-03-19T10:06:18.724Z,1020.32
2019-03-19T10:07:18.847Z,1020.28
2019-03-19T10:08:18.705Z,1019.96
2019-03-19T10:09:19.098Z,1020.19
2019-03-19T10:10:18.681Z,1020.28
2019-03-19T10:11:18.666Z,1020.06
2019-03-19T10:12:18.665Z,1020.29
2019-03-19T10:13:18.661Z,1020.30
2019-03-19T10:14:19.042Z,1019.82
2019-03-19T10:15:18.637Z,1020.35
2019-03-19T10:16:18.963Z,1020.18
2019-03-19T10:17:18.613Z,1019.80
2019-03-19T10:18:18.604Z,1019.83
2019-03-19T10:19:18.925Z,1019.85
2019-03-19T10:20:18.568Z,1019.82
2019-03-19T10:21:18.573Z,1019.82
2019-03-19T10:22:18.734Z,1019.90
2019-03-19T10:23:18.554Z,1019.91
2019-03-19T10:24:18.691Z,1019.91
2019-03-19T10:25:19.084Z,1019.97
2019-03-19T10:26:18.749Z,1019.95
2019-03-19T10:27:19.659Z,1020.05
2019-03-19T10:28:18.549Z,1020.05
2019-03-19T10:29:18.544Z,1020.09
2019-03-19T10:30:18.456Z,1020.10
2019-03-19T10:31:18.754Z,1020.07
2019-03-19T10:32:18.715Z,1020.14
2019-03-19T10:33:18.419Z,1020.13
2019-03-19T10:34:18.413Z,1020.64
2019-03-19T10:35:18.411Z,1020.54
2019-03-19T10:36:18.411Z,1020.60
2019-03-19T10:37:18.373Z,1020.58
2019-03-19T10:38:18.598Z,1020.55
2019-03-19T10:39:18.418Z,1020.01
2019-03-19T10:40:18.348Z,1019.98
2019-03-19T10:41:18.350Z,1020.02
2019-03-19T10:42:18.321Z,1020.00
2019-03-19T10:43:18.318Z,1020.10
2019-03-19T10:44:18.476Z,1020.69
2019-03-19T10:45:18.291Z,1020.04
2019-03-19T10:46:18.327Z,1020.09
2019-03-19T10:47:18.267Z,1020.25
2019-03-19T10:48:18.258Z,1020.22
2019-03-19T10:49:18.251Z,1020.07
2019-03-19T10:50:18.623Z,1020.19
2019-03-19T10:51:18.585Z,1020.14
2019-03-19T10:52:18.226Z,1020.17
2019-03-19T10:53:19.504Z,1020.22
2019-03-19T10:54:18.702Z,1020.79
2019-03-19T10:55:18.197Z,1020.23
2019-03-19T10:56:18.281Z,1020.26
2019-03-19T10:57:18.158Z,1020.27
2019-03-19T10:58:18.185Z,1020.19
2019-03-19T10:59:18.492Z,1020.18
2019-03-19T11:00:18.118Z,1020.20
2019-03-19T11:01:18.118Z,1020.20
2019-03-19T11:02:18.102Z,1020.23
2019-03-19T11:03:18.105Z,1020.22
2019-03-19T11:04:18.087Z,1020.23
2019-03-19T11:05:18.242Z,1020.23
2019-03-19T11:06:18.185Z,1020.27
2019-03-19T11:07:18.053Z,1020.24
2019-03-19T11:08:18.128Z,1020.33
2019-03-19T11:09:18.056Z,1020.34
2019-03-19T11:11:28.132Z,1020.91
2019-03-19T11:12:27.850Z,1020.33
2019-03-19T11:13:28.148Z,1020.14
2019-03-19T11:14:27.827Z,1020.19
2019-03-19T11:15:27.825Z,1020.25
2019-03-19T11:16:27.992Z,1020.16
2019-03-19T11:17:28.585Z,1020.19
2019-03-19T11:18:27.970Z,1020.28
2019-03-19T11:19:27.897Z,1020.26
2019-03-19T11:20:27.785Z,1020.24
2019-03-19T11:21:28.217Z,1020.32
2019-03-19T11:22:27.739Z,1020.30
2019-03-19T11:23:28.059Z,1020.27
2019-03-19T11:24:29.646Z,1020.24
2019-03-19T11:25:27.709Z,1020.29
2019-03-19T11:26:27.711Z,1020.30
2019-03-19T11:27:27.691Z,1020.32
2019-03-19T11:28:27.869Z,1020.32
2019-03-19T11:29:27.666Z,1020.28
2019-03-19T11:30:27.661Z,1020.31
2019-03-19T11:31:27.648Z,1020.31
2019-03-19T11:32:27.655Z,1020.39
2019-03-19T11:33:27.655Z,1020.38
2019-03-19T11:34:27.900Z,1020.37
2019-03-19T11:35:27.614Z,1020.22
2019-03-19T11:36:27.922Z,1020.19
2019-03-19T11:37:27.589Z,1020.75
2019-03-19T11:38:27.586Z,1020.41
2019-03-19T11:39:27.558Z,1020.68
2019-03-19T11:40:27.552Z,1020.73
2019-03-19T11:41:27.712Z,1020.75
2019-03-19T11:42:27.552Z,1020.64
2019-03-19T11:43:27.525Z,1020.71
2019-03-19T11:44:27.502Z,1020.18
2019-03-19T11:45:27.503Z,1020.10
2019-03-19T11:46:27.779Z,1020.13
2019-03-19T11:47:27.475Z,1020.12
2019-03-19T11:48:27.462Z,1020.15
2019-03-19T11:49:27.458Z,1020.43
2019-03-19T11:50:27.519Z,1020.24
2019-03-19T11:51:28.919Z,1020.22
2019-03-19T11:52:27.420Z,1020.27
2019-03-19T11:53:27.409Z,1020.25
2019-03-19T11:54:27.392Z,1020.31
2019-03-19T11:55:27.408Z,1020.31
2019-03-19T11:56:27.398Z,1020.38
2019-03-19T11:57:27.524Z,1020.35
2019-03-19T11:58:27.349Z,1020.35
2019-03-19T11:59:28.401Z,1020.39
2019-03-19T12:00:27.332Z,1020.42
2019-03-19T12:01:27.330Z,1020.39
2019-03-19T12:02:27.497Z,1020.46
2019-03-19T12:03:27.297Z,1020.49
2019-03-19T12:04:27.309Z,1020.50
2019-03-19T12:05:27.496Z,1020.48
2019-03-19T12:06:27.405Z,1020.47